sensor_id;sensor_type;location;lat;lon;timestamp;temperature;humidity
7167;DHT22;3625;51.762;14.320;2023-01-16T00:00:38;3.10;99.90
7167;DHT22;3625;51.762;14.320;2023-01-16T00:03:06;3.30;99.90
7167;DHT22;3625;51.762;14.320;2023-01-16T00:05:34;3.10;99.90
7167;DHT22;3625;51.762;14.320;2023-01-16T00:08:04;3.00;99.90
7167;DHT22;3625;51.762;14.320;2023-01-16T00:10:32;3.00;99.90
7167;DHT22;3625;51.762;14.320;2023-01-16T00:13:02;3.30;99.90
7167;DHT22;3625;51.762;14.320;2023-01-16T00:15:31;3.00;99.90
7167;DHT22;3625;51.762;14.320;2023-01-16T00:18:00;3.00;99.90
7167;DHT22;3625;51.762;14.320;2023-01-16T00:20:30;3.90;99.90
7167;DHT22;3625;51.762;14.320;2023-01-16T00:22:58;2.90;99.90
7167;DHT22;3625;51.762;14.320;2023-01-16T00:25:27;2.90;99.90
7167;DHT22;3625;51.762;14.320;2023-01-16T00:27:55;2.90;99.90
7167;DHT22;3625;51.762;14.320;2023-01-16T00:30:25;2.90;99.90
7167;DHT22;3625;51.762;14.320;2023-01-16T00:32:53;3.00;99.90
7167;DHT22;3625;51.762;14.320;2023-01-16T00:35:22;3.00;99.90
7167;DHT22;3625;51.762;14.320;2023-01-16T00:37:53;5.60;99.90
7167;DHT22;3625;51.762;14.320;2023-01-16T00:40:22;3.00;99.90
7167;DHT22;3625;51.762;14.320;2023-01-16T00:42:51;3.10;99.90
7167;DHT22;3625;51.762;14.320;2023-01-16T00:47:52;2.90;99.90
7167;DHT22;3625;51.762;14.320;2023-01-16T00:50:20;3.60;99.90
7167;DHT22;3625;51.762;14.320;2023-01-16T00:52:49;2.90;99.90
7167;DHT22;3625;51.762;14.320;2023-01-16T00:55:17;3.50;99.90
7167;DHT22;3625;51.762;14.320;2023-01-16T00:57:46;4.00;99.90
7167;DHT22;3625;51.762;14.320;2023-01-16T01:00:16;2.90;99.90
7167;DHT22;3625;51.762;14.320;2023-01-16T01:02:49;3.00;99.90
7167;DHT22;3625;51.762;14.320;2023-01-16T01:05:18;3.00;99.90
7167;DHT22;3625;51.762;14.320;2023-01-16T01:07:47;3.00;99.90
7167;DHT22;3625;51.762;14.320;2023-01-16T01:10:15;3.00;99.90
7167;DHT22;3625;51.762;14.320;2023-01-16T01:12:44;2.90;99.90
7167;DHT22;3625;51.762;14.320;2023-01-16T01:15:13;2.90;99.90
7167;DHT22;3625;51.762;14.320;2023-01-16T01:17:41;2.90;99.90
7167;DHT22;3625;51.762;14.320;2023-01-16T01:20:11;2.90;99.90
7167;DHT22;3625;51.762;14.320;2023-01-16T01:22:40;3.30;99.90
7167;DHT22;3625;51.762;14.320;2023-01-16T01:25:09;2.90;99.90
7167;DHT22;3625;51.762;14.320;2023-01-16T01:27:37;2.80;99.90
7167;DHT22;3625;51.762;14.320;2023-01-16T01:30:07;2.70;99.90
7167;DHT22;3625;51.762;14.320;2023-01-16T01:32:36;2.70;99.90
7167;DHT22;3625;51.762;14.320;2023-01-16T01:35:05;2.70;99.90
7167;DHT22;3625;51.762;14.320;2023-01-16T01:37:36;2.70;99.90
7167;DHT22;3625;51.762;14.320;2023-01-16T01:40:06;2.70;99.90
7167;DHT22;3625;51.762;14.320;2023-01-16T01:42:37;2.70;99.90
7167;DHT22;3625;51.762;14.320;2023-01-16T01:45:18;2.70;99.90
7167;DHT22;3625;51.762;14.320;2023-01-16T01:47:54;2.70;99.90
7167;DHT22;3625;51.762;14.320;2023-01-16T01:50:36;2.70;99.90
7167;DHT22;3625;51.762;14.320;2023-01-16T01:53:14;2.70;99.90
7167;DHT22;3625;51.762;14.320;2023-01-16T01:55:47;4.60;99.90
7167;DHT22;3625;51.762;14.320;2023-01-16T01:58:18;2.60;99.90
7167;DHT22;3625;51.762;14.320;2023-01-16T02:00:53;3.20;99.90
7167;DHT22;3625;51.762;14.320;2023-01-16T02:03:27;2.70;99.90
7167;DHT22;3625;51.762;14.320;2023-01-16T02:06:02;2.60;99.90
7167;DHT22;3625;51.762;14.320;2023-01-16T02:08:36;2.60;99.90
7167;DHT22;3625;51.762;14.320;2023-01-16T02:11:09;2.70;99.90
7167;DHT22;3625;51.762;14.320;2023-01-16T02:13:54;2.70;99.90
7167;DHT22;3625;51.762;14.320;2023-01-16T02:16:25;2.70;99.90
7167;DHT22;3625;51.762;14.320;2023-01-16T02:19:18;2.70;99.90
7167;DHT22;3625;51.762;14.320;2023-01-16T02:22:27;2.70;99.90
7167;DHT22;3625;51.762;14.320;2023-01-16T02:25:49;2.60;99.90
7167;DHT22;3625;51.762;14.320;2023-01-16T02:29:01;2.60;99.90
7167;DHT22;3625;51.762;14.320;2023-01-16T02:31:57;2.60;99.90
7167;DHT22;3625;51.762;14.320;2023-01-16T02:34:42;2.50;99.90
7167;DHT22;3625;51.762;14.320;2023-01-16T02:37:27;2.60;99.90
7167;DHT22;3625;51.762;14.320;2023-01-16T02:40:15;2.50;99.90
7167;DHT22;3625;51.762;14.320;2023-01-16T02:43:03;2.50;99.90
7167;DHT22;3625;51.762;14.320;2023-01-16T02:45:43;2.40;99.90
7167;DHT22;3625;51.762;14.320;2023-01-16T02:48:25;3.50;99.90
7167;DHT22;3625;51.762;14.320;2023-01-16T02:51:04;2.40;99.90
7167;DHT22;3625;51.762;14.320;2023-01-16T02:53:46;2.30;99.90
7167;DHT22;3625;51.762;14.320;2023-01-16T02:56:29;4.40;99.90
7167;DHT22;3625;51.762;14.320;2023-01-16T02:59:05;2.20;99.90
7167;DHT22;3625;51.762;14.320;2023-01-16T03:01:35;2.20;99.90
7167;DHT22;3625;51.762;14.320;2023-01-16T03:04:38;2.30;99.90
7167;DHT22;3625;51.762;14.320;2023-01-16T03:10:31;2.10;99.90
7167;DHT22;3625;51.762;14.320;2023-01-16T03:13:35;2.20;99.90
7167;DHT22;3625;51.762;14.320;2023-01-16T03:16:26;2.10;99.90
7167;DHT22;3625;51.762;14.320;2023-01-16T03:19:11;2.10;99.90
7167;DHT22;3625;51.762;14.320;2023-01-16T03:21:58;2.10;99.90
7167;DHT22;3625;51.762;14.320;2023-01-16T03:24:48;2.00;99.90
7167;DHT22;3625;51.762;14.320;2023-01-16T03:27:33;2.10;99.90
7167;DHT22;3625;51.762;14.320;2023-01-16T03:30:13;2.00;99.90
7167;DHT22;3625;51.762;14.320;2023-01-16T03:32:52;1.90;99.90
7167;DHT22;3625;51.762;14.320;2023-01-16T03:35:27;1.90;99.90
7167;DHT22;3625;51.762;14.320;2023-01-16T03:38:03;2.00;99.90
7167;DHT22;3625;51.762;14.320;2023-01-16T03:40:38;3.20;99.90
7167;DHT22;3625;51.762;14.320;2023-01-16T03:43:16;1.90;99.90
7167;DHT22;3625;51.762;14.320;2023-01-16T03:45:52;1.90;99.90
7167;DHT22;3625;51.762;14.320;2023-01-16T03:48:29;1.90;99.90
7167;DHT22;3625;51.762;14.320;2023-01-16T03:51:05;1.80;99.90
7167;DHT22;3625;51.762;14.320;2023-01-16T03:53:40;1.80;99.90
7167;DHT22;3625;51.762;14.320;2023-01-16T03:56:16;1.80;99.90
7167;DHT22;3625;51.762;14.320;2023-01-16T03:58:51;1.70;99.90
7167;DHT22;3625;51.762;14.320;2023-01-16T04:01:28;1.90;99.90
7167;DHT22;3625;51.762;14.320;2023-01-16T04:04:07;2.00;99.90
7167;DHT22;3625;51.762;14.320;2023-01-16T04:06:45;2.00;99.90
7167;DHT22;3625;51.762;14.320;2023-01-16T04:09:24;1.60;99.90
7167;DHT22;3625;51.762;14.320;2023-01-16T04:11:58;3.30;99.90
7167;DHT22;3625;51.762;14.320;2023-01-16T04:14:29;1.70;99.90
7167;DHT22;3625;51.762;14.320;2023-01-16T04:16:59;1.70;99.90
7167;DHT22;3625;51.762;14.320;2023-01-16T04:19:28;1.70;99.90
7167;DHT22;3625;51.762;14.320;2023-01-16T04:22:05;3.40;99.90
7167;DHT22;3625;51.762;14.320;2023-01-16T04:24:36;1.60;99.90
7167;DHT22;3625;51.762;14.320;2023-01-16T04:27:04;1.60;99.90
7167;DHT22;3625;51.762;14.320;2023-01-16T04:29:33;1.60;99.90
7167;DHT22;3625;51.762;14.320;2023-01-16T04:32:01;1.60;99.90
7167;DHT22;3625;51.762;14.320;2023-01-16T04:34:30;1.60;99.90
7167;DHT22;3625;51.762;14.320;2023-01-16T04:36:58;2.20;99.90
7167;DHT22;3625;51.762;14.320;2023-01-16T04:39:26;1.50;99.90
7167;DHT22;3625;51.762;14.320;2023-01-16T04:41:56;1.40;99.90
7167;DHT22;3625;51.762;14.320;2023-01-16T04:44:25;1.50;99.90
7167;DHT22;3625;51.762;14.320;2023-01-16T04:46:53;1.40;99.90
7167;DHT22;3625;51.762;14.320;2023-01-16T04:49:22;1.40;99.90
7167;DHT22;3625;51.762;14.320;2023-01-16T04:51:50;1.40;99.90
7167;DHT22;3625;51.762;14.320;2023-01-16T04:54:19;1.40;99.90
7167;DHT22;3625;51.762;14.320;2023-01-16T04:56:48;1.30;99.90
7167;DHT22;3625;51.762;14.320;2023-01-16T04:59:18;1.30;99.90
7167;DHT22;3625;51.762;14.320;2023-01-16T05:04:16;1.40;99.90
7167;DHT22;3625;51.762;14.320;2023-01-16T05:09:16;1.50;99.90
7167;DHT22;3625;51.762;14.320;2023-01-16T05:11:45;2.60;99.90
7167;DHT22;3625;51.762;14.320;2023-01-16T05:14:13;1.50;99.90
7167;DHT22;3625;51.762;14.320;2023-01-16T05:16:43;1.50;99.90
7167;DHT22;3625;51.762;14.320;2023-01-16T05:19:12;1.50;99.90
7167;DHT22;3625;51.762;14.320;2023-01-16T05:21:40;1.60;99.90
7167;DHT22;3625;51.762;14.320;2023-01-16T05:24:09;1.60;99.90
7167;DHT22;3625;51.762;14.320;2023-01-16T05:26:37;1.50;99.90
7167;DHT22;3625;51.762;14.320;2023-01-16T05:29:06;1.50;99.90
7167;DHT22;3625;51.762;14.320;2023-01-16T05:31:34;1.50;99.90
7167;DHT22;3625;51.762;14.320;2023-01-16T05:34:04;1.50;99.90
7167;DHT22;3625;51.762;14.320;2023-01-16T05:36:33;2.50;99.90
7167;DHT22;3625;51.762;14.320;2023-01-16T05:41:30;1.50;99.90
7167;DHT22;3625;51.762;14.320;2023-01-16T05:43:58;2.70;99.90
7167;DHT22;3625;51.762;14.320;2023-01-16T05:46:27;1.60;99.90
7167;DHT22;3625;51.762;14.320;2023-01-16T05:48:56;1.70;99.90
7167;DHT22;3625;51.762;14.320;2023-01-16T05:51:25;2.80;99.90
7167;DHT22;3625;51.762;14.320;2023-01-16T05:53:54;1.70;99.90
7167;DHT22;3625;51.762;14.320;2023-01-16T05:56:23;1.60;99.90
7167;DHT22;3625;51.762;14.320;2023-01-16T05:58:53;1.60;99.90
7167;DHT22;3625;51.762;14.320;2023-01-16T06:01:24;1.70;99.90
7167;DHT22;3625;51.762;14.320;2023-01-16T06:06:21;1.60;99.90
7167;DHT22;3625;51.762;14.320;2023-01-16T06:08:51;1.60;99.90
7167;DHT22;3625;51.762;14.320;2023-01-16T06:11:19;4.30;99.90
7167;DHT22;3625;51.762;14.320;2023-01-16T06:13:48;1.50;99.90
7167;DHT22;3625;51.762;14.320;2023-01-16T06:16:18;1.50;99.90
7167;DHT22;3625;51.762;14.320;2023-01-16T06:18:46;1.50;99.90
7167;DHT22;3625;51.762;14.320;2023-01-16T06:21:15;1.50;99.90
7167;DHT22;3625;51.762;14.320;2023-01-16T06:23:43;1.50;99.90
7167;DHT22;3625;51.762;14.320;2023-01-16T06:26:13;1.70;99.90
7167;DHT22;3625;51.762;14.320;2023-01-16T06:28:44;1.50;99.90
7167;DHT22;3625;51.762;14.320;2023-01-16T06:31:12;2.00;99.90
7167;DHT22;3625;51.762;14.320;2023-01-16T06:33:41;1.60;99.90
7167;DHT22;3625;51.762;14.320;2023-01-16T06:36:10;1.60;99.90
7167;DHT22;3625;51.762;14.320;2023-01-16T06:38:38;1.60;99.90
7167;DHT22;3625;51.762;14.320;2023-01-16T06:41:07;1.60;99.90
7167;DHT22;3625;51.762;14.320;2023-01-16T06:43:37;1.60;99.90
7167;DHT22;3625;51.762;14.320;2023-01-16T06:46:05;1.60;99.90
7167;DHT22;3625;51.762;14.320;2023-01-16T06:48:33;1.60;99.90
7167;DHT22;3625;51.762;14.320;2023-01-16T06:51:02;1.70;99.90
7167;DHT22;3625;51.762;14.320;2023-01-16T06:53:31;1.60;99.90
7167;DHT22;3625;51.762;14.320;2023-01-16T06:55:59;1.60;99.90
7167;DHT22;3625;51.762;14.320;2023-01-16T06:58:28;2.70;99.90
7167;DHT22;3625;51.762;14.320;2023-01-16T07:00:58;1.60;99.90
7167;DHT22;3625;51.762;14.320;2023-01-16T07:03:26;1.60;99.90
7167;DHT22;3625;51.762;14.320;2023-01-16T07:05:55;1.60;99.90
7167;DHT22;3625;51.762;14.320;2023-01-16T07:08:23;1.60;99.90
7167;DHT22;3625;51.762;14.320;2023-01-16T07:10:52;2.00;99.90
7167;DHT22;3625;51.762;14.320;2023-01-16T07:15:55;1.70;99.90
7167;DHT22;3625;51.762;14.320;2023-01-16T07:18:42;1.80;99.90
7167;DHT22;3625;51.762;14.320;2023-01-16T07:21:29;1.90;99.90
7167;DHT22;3625;51.762;14.320;2023-01-16T07:24:19;2.20;99.90
7167;DHT22;3625;51.762;14.320;2023-01-16T07:26:56;2.00;99.90
7167;DHT22;3625;51.762;14.320;2023-01-16T07:29:30;2.10;99.90
7167;DHT22;3625;51.762;14.320;2023-01-16T07:32:02;2.20;99.90
7167;DHT22;3625;51.762;14.320;2023-01-16T07:34:33;2.20;99.90
7167;DHT22;3625;51.762;14.320;2023-01-16T07:37:02;2.40;99.90
7167;DHT22;3625;51.762;14.320;2023-01-16T07:39:30;2.60;99.90
7167;DHT22;3625;51.762;14.320;2023-01-16T07:42:02;2.70;99.90
7167;DHT22;3625;51.762;14.320;2023-01-16T07:44:32;2.90;99.90
7167;DHT22;3625;51.762;14.320;2023-01-16T07:47:01;3.10;99.90
7167;DHT22;3625;51.762;14.320;2023-01-16T07:51:59;3.20;99.90
7167;DHT22;3625;51.762;14.320;2023-01-16T07:54:27;3.40;99.90
7167;DHT22;3625;51.762;14.320;2023-01-16T07:56:56;3.40;99.90
7167;DHT22;3625;51.762;14.320;2023-01-16T07:59:24;3.50;99.90
7167;DHT22;3625;51.762;14.320;2023-01-16T08:01:53;3.60;99.90
7167;DHT22;3625;51.762;14.320;2023-01-16T08:04:21;3.70;99.90
7167;DHT22;3625;51.762;14.320;2023-01-16T08:06:52;4.20;99.90
7167;DHT22;3625;51.762;14.320;2023-01-16T08:09:22;3.80;99.90
7167;DHT22;3625;51.762;14.320;2023-01-16T08:11:50;4.40;99.90
7167;DHT22;3625;51.762;14.320;2023-01-16T08:14:19;4.20;99.90
7167;DHT22;3625;51.762;14.320;2023-01-16T08:16:47;3.90;99.90
7167;DHT22;3625;51.762;14.320;2023-01-16T08:19:15;4.10;99.90
7167;DHT22;3625;51.762;14.320;2023-01-16T08:21:46;4.20;99.90
7167;DHT22;3625;51.762;14.320;2023-01-16T08:24:15;4.10;99.90
7167;DHT22;3625;51.762;14.320;2023-01-16T08:26:45;4.20;99.90
7167;DHT22;3625;51.762;14.320;2023-01-16T08:29:14;7.00;99.90
7167;DHT22;3625;51.762;14.320;2023-01-16T08:31:42;4.30;99.90
7167;DHT22;3625;51.762;14.320;2023-01-16T08:36:40;4.40;99.90
7167;DHT22;3625;51.762;14.320;2023-01-16T08:39:09;4.40;99.90
7167;DHT22;3625;51.762;14.320;2023-01-16T08:41:38;4.60;99.90
7167;DHT22;3625;51.762;14.320;2023-01-16T08:44:25;4.60;99.90
7167;DHT22;3625;51.762;14.320;2023-01-16T08:47:13;4.60;99.90
7167;DHT22;3625;51.762;14.320;2023-01-16T08:50:04;4.70;99.90
7167;DHT22;3625;51.762;14.320;2023-01-16T08:52:50;4.50;99.90
7167;DHT22;3625;51.762;14.320;2023-01-16T08:55:19;4.40;99.90
7167;DHT22;3625;51.762;14.320;2023-01-16T08:57:49;4.30;99.90
7167;DHT22;3625;51.762;14.320;2023-01-16T09:00:20;4.20;99.90
7167;DHT22;3625;51.762;14.320;2023-01-16T09:02:48;4.20;99.90
7167;DHT22;3625;51.762;14.320;2023-01-16T09:05:17;4.20;99.90
7167;DHT22;3625;51.762;14.320;2023-01-16T09:07:45;4.20;99.90
7167;DHT22;3625;51.762;14.320;2023-01-16T09:10:14;4.10;99.90
7167;DHT22;3625;51.762;14.320;2023-01-16T09:12:43;4.20;99.90
7167;DHT22;3625;51.762;14.320;2023-01-16T09:15:31;4.30;99.90
7167;DHT22;3625;51.762;14.320;2023-01-16T09:17:59;4.30;99.90
7167;DHT22;3625;51.762;14.320;2023-01-16T09:20:28;4.40;99.90
7167;DHT22;3625;51.762;14.320;2023-01-16T09:22:57;4.30;99.90
7167;DHT22;3625;51.762;14.320;2023-01-16T09:25:26;4.30;99.90
7167;DHT22;3625;51.762;14.320;2023-01-16T09:27:54;5.30;99.90
7167;DHT22;3625;51.762;14.320;2023-01-16T09:30:25;4.50;99.90
7167;DHT22;3625;51.762;14.320;2023-01-16T09:32:55;5.40;99.90
7167;DHT22;3625;51.762;14.320;2023-01-16T09:35:24;4.40;99.90
7167;DHT22;3625;51.762;14.320;2023-01-16T09:37:52;4.70;99.90
7167;DHT22;3625;51.762;14.320;2023-01-16T09:40:22;4.50;99.90
7167;DHT22;3625;51.762;14.320;2023-01-16T09:43:09;5.00;99.90
7167;DHT22;3625;51.762;14.320;2023-01-16T09:46:11;4.50;99.90
7167;DHT22;3625;51.762;14.320;2023-01-16T09:48:48;4.60;99.90
7167;DHT22;3625;51.762;14.320;2023-01-16T09:51:24;4.70;99.90
7167;DHT22;3625;51.762;14.320;2023-01-16T09:53:58;4.90;99.90
7167;DHT22;3625;51.762;14.320;2023-01-16T09:56:49;4.70;99.90
7167;DHT22;3625;51.762;14.320;2023-01-16T09:59:43;4.90;99.90
7167;DHT22;3625;51.762;14.320;2023-01-16T10:02:20;4.80;99.90
7167;DHT22;3625;51.762;14.320;2023-01-16T10:04:54;4.80;99.90
7167;DHT22;3625;51.762;14.320;2023-01-16T10:07:47;5.10;99.90
7167;DHT22;3625;51.762;14.320;2023-01-16T10:10:42;4.50;99.90
7167;DHT22;3625;51.762;14.320;2023-01-16T10:13:49;5.00;99.90
7167;DHT22;3625;51.762;14.320;2023-01-16T10:16:45;5.10;99.90
7167;DHT22;3625;51.762;14.320;2023-01-16T10:19:34;5.20;99.90
7167;DHT22;3625;51.762;14.320;2023-01-16T10:22:31;5.20;99.90
7167;DHT22;3625;51.762;14.320;2023-01-16T10:25:19;5.30;99.90
7167;DHT22;3625;51.762;14.320;2023-01-16T10:28:05;5.40;99.90
7167;DHT22;3625;51.762;14.320;2023-01-16T10:30:50;5.40;99.90
7167;DHT22;3625;51.762;14.320;2023-01-16T10:33:27;5.40;99.90
7167;DHT22;3625;51.762;14.320;2023-01-16T10:36:11;5.90;99.90
7167;DHT22;3625;51.762;14.320;2023-01-16T10:38:47;5.50;99.90
7167;DHT22;3625;51.762;14.320;2023-01-16T10:41:26;5.50;99.90
7167;DHT22;3625;51.762;14.320;2023-01-16T10:44:31;5.50;99.90
7167;DHT22;3625;51.762;14.320;2023-01-16T10:47:21;5.70;99.90
7167;DHT22;3625;51.762;14.320;2023-01-16T10:50:09;5.80;99.90
7167;DHT22;3625;51.762;14.320;2023-01-16T10:52:39;5.90;99.90
7167;DHT22;3625;51.762;14.320;2023-01-16T10:55:10;5.80;99.90
7167;DHT22;3625;51.762;14.320;2023-01-16T10:57:44;5.90;99.90
7167;DHT22;3625;51.762;14.320;2023-01-16T11:00:19;5.90;99.90
7167;DHT22;3625;51.762;14.320;2023-01-16T11:02:52;5.90;99.90
7167;DHT22;3625;51.762;14.320;2023-01-16T11:05:27;5.90;99.90
7167;DHT22;3625;51.762;14.320;2023-01-16T11:08:05;6.10;99.90
7167;DHT22;3625;51.762;14.320;2023-01-16T11:10:39;6.10;99.90
7167;DHT22;3625;51.762;14.320;2023-01-16T11:13:13;6.10;99.90
7167;DHT22;3625;51.762;14.320;2023-01-16T11:16:04;6.10;99.90
7167;DHT22;3625;51.762;14.320;2023-01-16T11:19:16;6.10;99.90
7167;DHT22;3625;51.762;14.320;2023-01-16T11:21:49;6.10;99.90
7167;DHT22;3625;51.762;14.320;2023-01-16T11:24:21;6.60;99.90
7167;DHT22;3625;51.762;14.320;2023-01-16T11:26:54;6.10;99.90
7167;DHT22;3625;51.762;14.320;2023-01-16T11:29:28;6.20;99.90
7167;DHT22;3625;51.762;14.320;2023-01-16T11:32:05;6.10;99.90
7167;DHT22;3625;51.762;14.320;2023-01-16T11:34:37;6.10;99.90
7167;DHT22;3625;51.762;14.320;2023-01-16T11:37:12;6.10;99.90
7167;DHT22;3625;51.762;14.320;2023-01-16T11:39:47;6.10;99.90
7167;DHT22;3625;51.762;14.320;2023-01-16T11:42:21;6.10;99.90
7167;DHT22;3625;51.762;14.320;2023-01-16T11:45:13;6.10;99.90
7167;DHT22;3625;51.762;14.320;2023-01-16T11:48:04;6.00;99.90
7167;DHT22;3625;51.762;14.320;2023-01-16T11:50:51;6.10;99.90
7167;DHT22;3625;51.762;14.320;2023-01-16T11:53:22;6.10;99.90
7167;DHT22;3625;51.762;14.320;2023-01-16T11:59:32;6.10;99.90
7167;DHT22;3625;51.762;14.320;2023-01-16T12:02:25;6.20;99.90
7167;DHT22;3625;51.762;14.320;2023-01-16T12:05:22;6.20;99.90
7167;DHT22;3625;51.762;14.320;2023-01-16T12:08:37;6.20;99.90
7167;DHT22;3625;51.762;14.320;2023-01-16T12:11:21;6.10;99.90
7167;DHT22;3625;51.762;14.320;2023-01-16T12:14:01;6.20;99.90
7167;DHT22;3625;51.762;14.320;2023-01-16T12:17:05;6.20;99.90
7167;DHT22;3625;51.762;14.320;2023-01-16T12:20:18;6.20;99.90
7167;DHT22;3625;51.762;14.320;2023-01-16T12:23:16;6.20;99.90
7167;DHT22;3625;51.762;14.320;2023-01-16T12:26:06;6.20;99.90
7167;DHT22;3625;51.762;14.320;2023-01-16T12:28:52;6.20;99.90
7167;DHT22;3625;51.762;14.320;2023-01-16T12:32:07;6.20;99.90
7167;DHT22;3625;51.762;14.320;2023-01-16T12:35:00;6.20;99.90
7167;DHT22;3625;51.762;14.320;2023-01-16T12:38:01;6.20;99.90
7167;DHT22;3625;51.762;14.320;2023-01-16T12:41:05;6.20;99.90
7167;DHT22;3625;51.762;14.320;2023-01-16T12:44:20;6.20;99.90
7167;DHT22;3625;51.762;14.320;2023-01-16T12:47:12;6.10;99.90
7167;DHT22;3625;51.762;14.320;2023-01-16T12:50:01;6.10;99.90
7167;DHT22;3625;51.762;14.320;2023-01-16T12:52:52;6.30;99.90
7167;DHT22;3625;51.762;14.320;2023-01-16T12:55:40;6.20;99.90
7167;DHT22;3625;51.762;14.320;2023-01-16T12:58:36;6.20;99.90
7167;DHT22;3625;51.762;14.320;2023-01-16T13:01:13;6.30;99.90
7167;DHT22;3625;51.762;14.320;2023-01-16T13:03:52;6.30;99.90
7167;DHT22;3625;51.762;14.320;2023-01-16T13:06:28;6.60;99.90
7167;DHT22;3625;51.762;14.320;2023-01-16T13:09:04;6.30;99.90
7167;DHT22;3625;51.762;14.320;2023-01-16T13:11:52;6.70;99.90
7167;DHT22;3625;51.762;14.320;2023-01-16T13:14:45;6.40;99.90
7167;DHT22;3625;51.762;14.320;2023-01-16T13:17:21;6.40;99.90
7167;DHT22;3625;51.762;14.320;2023-01-16T13:20:00;6.50;99.90
7167;DHT22;3625;51.762;14.320;2023-01-16T13:22:38;6.50;99.90
7167;DHT22;3625;51.762;14.320;2023-01-16T13:25:18;6.40;99.90
7167;DHT22;3625;51.762;14.320;2023-01-16T13:27:55;6.40;99.90
7167;DHT22;3625;51.762;14.320;2023-01-16T13:30:27;6.80;99.90
7167;DHT22;3625;51.762;14.320;2023-01-16T13:32:59;6.30;99.90
7167;DHT22;3625;51.762;14.320;2023-01-16T13:35:35;6.30;99.90
7167;DHT22;3625;51.762;14.320;2023-01-16T13:41:21;6.30;99.90
7167;DHT22;3625;51.762;14.320;2023-01-16T13:43:57;6.30;99.90
7167;DHT22;3625;51.762;14.320;2023-01-16T13:46:47;6.30;99.90
7167;DHT22;3625;51.762;14.320;2023-01-16T13:49:19;6.30;99.90
7167;DHT22;3625;51.762;14.320;2023-01-16T13:51:51;6.30;99.90
7167;DHT22;3625;51.762;14.320;2023-01-16T13:54:23;6.60;99.90
7167;DHT22;3625;51.762;14.320;2023-01-16T13:56:59;6.30;99.90
7167;DHT22;3625;51.762;14.320;2023-01-16T13:59:41;6.30;99.90
7167;DHT22;3625;51.762;14.320;2023-01-16T14:02:39;6.30;99.90
7167;DHT22;3625;51.762;14.320;2023-01-16T14:05:28;6.20;99.90
7167;DHT22;3625;51.762;14.320;2023-01-16T14:08:18;6.20;99.90
7167;DHT22;3625;51.762;14.320;2023-01-16T14:11:40;6.10;99.90
7167;DHT22;3625;51.762;14.320;2023-01-16T14:14:32;6.10;99.90
7167;DHT22;3625;51.762;14.320;2023-01-16T14:18:11;6.20;99.90
7167;DHT22;3625;51.762;14.320;2023-01-16T14:20:44;6.20;99.90
7167;DHT22;3625;51.762;14.320;2023-01-16T14:23:23;6.20;99.90
7167;DHT22;3625;51.762;14.320;2023-01-16T14:26:18;6.10;99.90
7167;DHT22;3625;51.762;14.320;2023-01-16T14:28:49;6.00;99.90
7167;DHT22;3625;51.762;14.320;2023-01-16T14:31:24;6.00;99.90
7167;DHT22;3625;51.762;14.320;2023-01-16T14:33:56;5.90;99.90
7167;DHT22;3625;51.762;14.320;2023-01-16T14:36:26;6.30;99.90
7167;DHT22;3625;51.762;14.320;2023-01-16T14:39:00;5.80;99.90
7167;DHT22;3625;51.762;14.320;2023-01-16T14:41:30;5.80;99.90
7167;DHT22;3625;51.762;14.320;2023-01-16T14:44:19;5.50;99.90
7167;DHT22;3625;51.762;14.320;2023-01-16T14:47:25;5.50;99.90
7167;DHT22;3625;51.762;14.320;2023-01-16T14:50:13;5.40;99.90
7167;DHT22;3625;51.762;14.320;2023-01-16T14:53:20;5.40;99.90
7167;DHT22;3625;51.762;14.320;2023-01-16T14:56:21;5.40;99.90
7167;DHT22;3625;51.762;14.320;2023-01-16T14:58:58;5.40;99.90
7167;DHT22;3625;51.762;14.320;2023-01-16T15:01:40;5.30;99.90
7167;DHT22;3625;51.762;14.320;2023-01-16T15:04:38;5.30;99.90
7167;DHT22;3625;51.762;14.320;2023-01-16T15:07:16;5.30;99.90
7167;DHT22;3625;51.762;14.320;2023-01-16T15:09:50;5.10;99.90
7167;DHT22;3625;51.762;14.320;2023-01-16T15:12:35;5.00;99.90
7167;DHT22;3625;51.762;14.320;2023-01-16T15:15:20;5.00;99.90
7167;DHT22;3625;51.762;14.320;2023-01-16T15:17:51;5.00;99.90
7167;DHT22;3625;51.762;14.320;2023-01-16T15:20:41;5.30;99.90
7167;DHT22;3625;51.762;14.320;2023-01-16T15:23:30;4.90;99.90
7167;DHT22;3625;51.762;14.320;2023-01-16T15:26:21;4.80;99.90
7167;DHT22;3625;51.762;14.320;2023-01-16T15:29:09;4.70;99.90
7167;DHT22;3625;51.762;14.320;2023-01-16T15:31:54;4.80;99.90
7167;DHT22;3625;51.762;14.320;2023-01-16T15:34:27;4.70;99.90
7167;DHT22;3625;51.762;14.320;2023-01-16T15:36:59;4.70;99.90
7167;DHT22;3625;51.762;14.320;2023-01-16T15:39:39;4.60;99.90
7167;DHT22;3625;51.762;14.320;2023-01-16T15:42:13;4.60;99.90
7167;DHT22;3625;51.762;14.320;2023-01-16T15:45:21;5.10;99.90
7167;DHT22;3625;51.762;14.320;2023-01-16T15:48:32;4.50;99.90
7167;DHT22;3625;51.762;14.320;2023-01-16T15:51:10;4.40;99.90
7167;DHT22;3625;51.762;14.320;2023-01-16T15:53:44;4.40;99.90
7167;DHT22;3625;51.762;14.320;2023-01-16T15:56:22;4.30;99.90
7167;DHT22;3625;51.762;14.320;2023-01-16T15:58:54;4.30;99.90
7167;DHT22;3625;51.762;14.320;2023-01-16T16:01:28;4.30;99.90
7167;DHT22;3625;51.762;14.320;2023-01-16T16:04:00;4.30;99.90
7167;DHT22;3625;51.762;14.320;2023-01-16T16:06:31;5.30;99.90
7167;DHT22;3625;51.762;14.320;2023-01-16T16:09:05;4.30;99.90
7167;DHT22;3625;51.762;14.320;2023-01-16T16:11:42;4.40;99.90
7167;DHT22;3625;51.762;14.320;2023-01-16T16:14:23;4.20;99.90
7167;DHT22;3625;51.762;14.320;2023-01-16T16:17:20;4.30;99.90
7167;DHT22;3625;51.762;14.320;2023-01-16T16:20:27;4.60;99.90
7167;DHT22;3625;51.762;14.320;2023-01-16T16:23:01;4.30;99.90
7167;DHT22;3625;51.762;14.320;2023-01-16T16:25:35;4.40;99.90
7167;DHT22;3625;51.762;14.320;2023-01-16T16:28:20;4.50;99.90
7167;DHT22;3625;51.762;14.320;2023-01-16T16:30:57;4.20;99.90
7167;DHT22;3625;51.762;14.320;2023-01-16T16:33:30;4.30;99.90
7167;DHT22;3625;51.762;14.320;2023-01-16T16:36:02;4.70;99.90
7167;DHT22;3625;51.762;14.320;2023-01-16T16:38:39;4.40;99.90
7167;DHT22;3625;51.762;14.320;2023-01-16T16:44:39;4.30;99.90
7167;DHT22;3625;51.762;14.320;2023-01-16T16:47:22;4.20;99.90
7167;DHT22;3625;51.762;14.320;2023-01-16T16:49:56;4.10;99.90
7167;DHT22;3625;51.762;14.320;2023-01-16T16:52:31;4.00;99.90
7167;DHT22;3625;51.762;14.320;2023-01-16T16:55:25;4.10;99.90
7167;DHT22;3625;51.762;14.320;2023-01-16T16:57:57;4.00;99.90
7167;DHT22;3625;51.762;14.320;2023-01-16T17:00:28;4.00;99.90
7167;DHT22;3625;51.762;14.320;2023-01-16T17:03:04;4.10;99.90
7167;DHT22;3625;51.762;14.320;2023-01-16T17:05:35;4.20;99.90
7167;DHT22;3625;51.762;14.320;2023-01-16T17:10:33;4.30;99.90
7167;DHT22;3625;51.762;14.320;2023-01-16T17:13:03;4.60;99.90
7167;DHT22;3625;51.762;14.320;2023-01-16T17:15:31;4.20;99.90
7167;DHT22;3625;51.762;14.320;2023-01-16T17:17:59;4.60;99.90
7167;DHT22;3625;51.762;14.320;2023-01-16T17:20:28;4.20;99.90
7167;DHT22;3625;51.762;14.320;2023-01-16T17:23:00;4.10;99.90
7167;DHT22;3625;51.762;14.320;2023-01-16T17:25:33;4.20;99.90
7167;DHT22;3625;51.762;14.320;2023-01-16T17:28:02;4.20;99.90
7167;DHT22;3625;51.762;14.320;2023-01-16T17:30:31;4.20;99.90
7167;DHT22;3625;51.762;14.320;2023-01-16T17:33:02;4.10;99.90
7167;DHT22;3625;51.762;14.320;2023-01-16T17:35:37;4.00;99.90
7167;DHT22;3625;51.762;14.320;2023-01-16T17:38:11;4.00;99.90
7167;DHT22;3625;51.762;14.320;2023-01-16T17:40:42;4.00;99.90
7167;DHT22;3625;51.762;14.320;2023-01-16T17:43:15;5.40;99.90